sensor_id;sensor_type;location;lat;lon;timestamp;P1;durP1;ratioP1;P2;durP2;ratioP2
68192;SDS011;55012;47.562;18.414;2022-09-27T00:02:05;54.63;;;19.83;;
68192;SDS011;55012;47.562;18.414;2022-09-27T00:04:31;51.15;;;18.60;;
68192;SDS011;55012;47.562;18.414;2022-09-27T00:06:56;42.00;;;16.08;;
68192;SDS011;55012;47.562;18.414;2022-09-27T00:09:22;35.58;;;14.85;;
68192;SDS011;55012;47.562;18.414;2022-09-27T00:11:47;30.30;;;14.38;;
68192;SDS011;55012;47.562;18.414;2022-09-27T00:14:16;30.38;;;13.55;;
68192;SDS011;55012;47.562;18.414;2022-09-27T00:16:42;27.30;;;13.18;;
68192;SDS011;55012;47.562;18.414;2022-09-27T00:19:12;27.38;;;12.85;;
68192;SDS011;55012;47.562;18.414;2022-09-27T00:21:42;25.08;;;12.32;;
68192;SDS011;55012;47.562;18.414;2022-09-27T00:24:11;24.17;;;12.27;;
68192;SDS011;55012;47.562;18.414;2022-09-27T00:26:38;21.23;;;11.88;;
68192;SDS011;55012;47.562;18.414;2022-09-27T00:29:04;40.47;;;17.92;;
68192;SDS011;55012;47.562;18.414;2022-09-27T00:31:29;94.90;;;34.95;;
68192;SDS011;55012;47.562;18.414;2022-09-27T00:33:56;105.80;;;38.33;;
68192;SDS011;55012;47.562;18.414;2022-09-27T00:36:26;86.72;;;33.33;;
68192;SDS011;55012;47.562;18.414;2022-09-27T00:38:53;62.35;;;25.77;;
68192;SDS011;55012;47.562;18.414;2022-09-27T00:41:26;51.78;;;21.58;;
68192;SDS011;55012;47.562;18.414;2022-09-27T00:43:55;44.83;;;19.67;;
68192;SDS011;55012;47.562;18.414;2022-09-27T00:49:04;43.30;;;19.00;;
68192;SDS011;55012;47.562;18.414;2022-09-27T00:51:44;41.78;;;20.60;;
68192;SDS011;55012;47.562;18.414;2022-09-27T00:54:13;47.92;;;23.52;;
68192;SDS011;55012;47.562;18.414;2022-09-27T00:56:41;46.75;;;24.50;;
68192;SDS011;55012;47.562;18.414;2022-09-27T01:02:06;27.13;;;16.30;;
68192;SDS011;55012;47.562;18.414;2022-09-27T01:04:32;33.10;;;17.98;;
68192;SDS011;55012;47.562;18.414;2022-09-27T01:06:58;29.17;;;17.75;;
68192;SDS011;55012;47.562;18.414;2022-09-27T01:09:24;39.30;;;21.40;;
68192;SDS011;55012;47.562;18.414;2022-09-27T01:11:56;40.67;;;21.45;;
68192;SDS011;55012;47.562;18.414;2022-09-27T01:42:07;36.42;;;16.20;;
68192;SDS011;55012;47.562;18.414;2022-09-27T01:45:06;39.50;;;18.08;;
68192;SDS011;55012;47.562;18.414;2022-09-27T01:47:43;36.60;;;17.42;;
68192;SDS011;55012;47.562;18.414;2022-09-27T01:50:14;34.88;;;17.08;;
68192;SDS011;55012;47.562;18.414;2022-09-27T01:52:47;28.95;;;14.95;;
68192;SDS011;55012;47.562;18.414;2022-09-27T01:55:16;32.38;;;15.98;;
68192;SDS011;55012;47.562;18.414;2022-09-27T01:57:47;54.55;;;20.27;;
68192;SDS011;55012;47.562;18.414;2022-09-27T02:00:19;81.78;;;23.23;;
68192;SDS011;55012;47.562;18.414;2022-09-27T02:02:48;73.30;;;22.90;;
68192;SDS011;55012;47.562;18.414;2022-09-27T02:05:22;49.80;;;19.55;;
68192;SDS011;55012;47.562;18.414;2022-09-27T02:07:57;39.97;;;17.35;;
68192;SDS011;55012;47.562;18.414;2022-09-27T02:10:31;31.35;;;15.65;;
68192;SDS011;55012;47.562;18.414;2022-09-27T02:13:11;31.98;;;16.40;;
68192;SDS011;55012;47.562;18.414;2022-09-27T02:18:41;32.97;;;15.90;;
68192;SDS011;55012;47.562;18.414;2022-09-27T02:21:16;35.47;;;15.70;;
68192;SDS011;55012;47.562;18.414;2022-09-27T02:23:53;35.25;;;15.70;;
68192;SDS011;55012;47.562;18.414;2022-09-27T02:26:31;32.10;;;16.23;;
68192;SDS011;55012;47.562;18.414;2022-09-27T02:29:08;33.17;;;17.00;;
68192;SDS011;55012;47.562;18.414;2022-09-27T02:31:39;32.15;;;16.15;;
68192;SDS011;55012;47.562;18.414;2022-09-27T02:34:10;35.50;;;16.27;;
68192;SDS011;55012;47.562;18.414;2022-09-27T02:36:40;30.63;;;14.45;;
68192;SDS011;55012;47.562;18.414;2022-09-27T02:39:06;28.58;;;13.85;;
68192;SDS011;55012;47.562;18.414;2022-09-27T02:41:31;25.83;;;13.90;;
68192;SDS011;55012;47.562;18.414;2022-09-27T02:44:01;26.17;;;13.23;;
68192;SDS011;55012;47.562;18.414;2022-09-27T02:46:35;28.23;;;14.43;;
68192;SDS011;55012;47.562;18.414;2022-09-27T03:01:14;30.40;;;14.98;;
68192;SDS011;55012;47.562;18.414;2022-09-27T03:03:27;25.38;;;14.48;;
68192;SDS011;55012;47.562;18.414;2022-09-27T03:06:01;32.70;;;16.23;;
68192;SDS011;55012;47.562;18.414;2022-09-27T03:08:30;31.88;;;17.00;;
68192;SDS011;55012;47.562;18.414;2022-09-27T03:10:56;30.92;;;16.27;;
68192;SDS011;55012;47.562;18.414;2022-09-27T03:13:21;30.55;;;15.23;;
68192;SDS011;55012;47.562;18.414;2022-09-27T03:15:47;26.98;;;14.90;;
68192;SDS011;55012;47.562;18.414;2022-09-27T03:18:12;28.95;;;15.48;;
68192;SDS011;55012;47.562;18.414;2022-09-27T03:20:38;31.10;;;14.85;;
68192;SDS011;55012;47.562;18.414;2022-09-27T03:23:04;29.30;;;15.30;;
68192;SDS011;55012;47.562;18.414;2022-09-27T03:25:29;29.25;;;16.00;;
68192;SDS011;55012;47.562;18.414;2022-09-27T03:27:55;26.75;;;14.98;;
68192;SDS011;55012;47.562;18.414;2022-09-27T03:30:20;29.23;;;15.07;;
68192;SDS011;55012;47.562;18.414;2022-09-27T03:32:46;30.20;;;16.25;;
68192;SDS011;55012;47.562;18.414;2022-09-27T03:35:12;31.13;;;16.70;;
68192;SDS011;55012;47.562;18.414;2022-09-27T03:37:38;35.50;;;18.10;;
68192;SDS011;55012;47.562;18.414;2022-09-27T03:40:05;35.33;;;17.92;;
68192;SDS011;55012;47.562;18.414;2022-09-27T03:42:31;32.95;;;16.92;;
68192;SDS011;55012;47.562;18.414;2022-09-27T03:44:56;32.33;;;17.15;;
68192;SDS011;55012;47.562;18.414;2022-09-27T03:47:22;31.98;;;16.42;;
68192;SDS011;55012;47.562;18.414;2022-09-27T03:49:47;29.50;;;16.05;;
68192;SDS011;55012;47.562;18.414;2022-09-27T03:52:13;28.65;;;15.93;;
68192;SDS011;55012;47.562;18.414;2022-09-27T03:54:40;32.28;;;16.35;;
68192;SDS011;55012;47.562;18.414;2022-09-27T03:57:06;30.33;;;15.18;;
68192;SDS011;55012;47.562;18.414;2022-09-27T03:59:32;29.95;;;16.35;;
68192;SDS011;55012;47.562;18.414;2022-09-27T04:01:58;32.10;;;16.58;;
68192;SDS011;55012;47.562;18.414;2022-09-27T04:04:23;31.40;;;16.75;;
68192;SDS011;55012;47.562;18.414;2022-09-27T04:06:49;33.60;;;17.27;;
68192;SDS011;55012;47.562;18.414;2022-09-27T04:09:14;30.92;;;16.98;;
68192;SDS011;55012;47.562;18.414;2022-09-27T04:11:40;124.28;;;41.30;;
68192;SDS011;55012;47.562;18.414;2022-09-27T04:14:05;216.77;;;63.55;;
68192;SDS011;55012;47.562;18.414;2022-09-27T04:16:33;228.75;;;70.47;;
68192;SDS011;55012;47.562;18.414;2022-09-27T04:18:59;118.63;;;42.83;;
68192;SDS011;55012;47.562;18.414;2022-09-27T04:21:25;78.82;;;32.45;;
68192;SDS011;55012;47.562;18.414;2022-09-27T04:23:51;63.92;;;27.25;;
68192;SDS011;55012;47.562;18.414;2022-09-27T04:26:17;56.08;;;25.73;;
68192;SDS011;55012;47.562;18.414;2022-09-27T04:28:45;52.75;;;25.95;;
68192;SDS011;55012;47.562;18.414;2022-09-27T04:31:11;55.10;;;26.48;;
68192;SDS011;55012;47.562;18.414;2022-09-27T04:33:37;62.83;;;29.90;;
68192;SDS011;55012;47.562;18.414;2022-09-27T04:36:02;69.25;;;33.72;;
68192;SDS011;55012;47.562;18.414;2022-09-27T04:38:47;82.13;;;39.80;;
68192;SDS011;55012;47.562;18.414;2022-09-27T04:41:13;75.43;;;35.88;;
68192;SDS011;55012;47.562;18.414;2022-09-27T04:43:39;64.80;;;32.35;;
68192;SDS011;55012;47.562;18.414;2022-09-27T04:46:05;58.15;;;28.55;;
68192;SDS011;55012;47.562;18.414;2022-09-27T04:48:30;51.28;;;25.02;;
68192;SDS011;55012;47.562;18.414;2022-09-27T04:50:59;47.90;;;24.70;;
68192;SDS011;55012;47.562;18.414;2022-09-27T04:53:28;46.67;;;22.60;;
68192;SDS011;55012;47.562;18.414;2022-09-27T04:55:55;45.13;;;22.38;;
68192;SDS011;55012;47.562;18.414;2022-09-27T04:58:21;43.33;;;22.23;;
68192;SDS011;55012;47.562;18.414;2022-09-27T05:00:47;45.42;;;22.98;;
68192;SDS011;55012;47.562;18.414;2022-09-27T05:03:16;48.40;;;23.88;;
68192;SDS011;55012;47.562;18.414;2022-09-27T05:05:43;49.95;;;24.77;;
68192;SDS011;55012;47.562;18.414;2022-09-27T05:08:08;51.45;;;24.92;;
68192;SDS011;55012;47.562;18.414;2022-09-27T05:10:35;55.42;;;27.23;;
68192;SDS011;55012;47.562;18.414;2022-09-27T05:13:00;55.53;;;28.48;;
68192;SDS011;55012;47.562;18.414;2022-09-27T05:15:26;57.10;;;26.92;;
68192;SDS011;55012;47.562;18.414;2022-09-27T05:17:51;52.80;;;25.75;;
68192;SDS011;55012;47.562;18.414;2022-09-27T05:20:18;58.10;;;24.10;;
68192;SDS011;55012;47.562;18.414;2022-09-27T05:22:44;56.25;;;24.30;;
68192;SDS011;55012;47.562;18.414;2022-09-27T05:25:10;52.92;;;24.70;;
68192;SDS011;55012;47.562;18.414;2022-09-27T05:27:36;53.38;;;25.17;;
68192;SDS011;55012;47.562;18.414;2022-09-27T05:30:02;55.53;;;24.27;;
68192;SDS011;55012;47.562;18.414;2022-09-27T05:32:28;48.22;;;23.55;;
68192;SDS011;55012;47.562;18.414;2022-09-27T05:34:53;46.75;;;23.33;;
68192;SDS011;55012;47.562;18.414;2022-09-27T05:37:19;52.67;;;24.60;;
68192;SDS011;55012;47.562;18.414;2022-09-27T05:39:46;49.65;;;26.17;;
68192;SDS011;55012;47.562;18.414;2022-09-27T05:42:12;53.40;;;24.83;;
68192;SDS011;55012;47.562;18.414;2022-09-27T05:44:39;64.43;;;24.92;;
68192;SDS011;55012;47.562;18.414;2022-09-27T05:47:05;64.57;;;26.92;;
68192;SDS011;55012;47.562;18.414;2022-09-27T05:49:31;61.92;;;26.35;;
68192;SDS011;55012;47.562;18.414;2022-09-27T05:51:57;48.17;;;21.98;;
68192;SDS011;55012;47.562;18.414;2022-09-27T05:54:22;45.70;;;22.23;;
68192;SDS011;55012;47.562;18.414;2022-09-27T05:56:48;46.30;;;22.40;;
68192;SDS011;55012;47.562;18.414;2022-09-27T05:59:15;50.85;;;24.20;;
68192;SDS011;55012;47.562;18.414;2022-09-27T06:01:40;49.70;;;25.00;;
68192;SDS011;55012;47.562;18.414;2022-09-27T06:04:06;47.22;;;25.85;;
68192;SDS011;55012;47.562;18.414;2022-09-27T06:06:34;50.78;;;26.27;;
68192;SDS011;55012;47.562;18.414;2022-09-27T06:09:00;49.47;;;26.17;;
68192;SDS011;55012;47.562;18.414;2022-09-27T06:11:26;46.17;;;24.27;;
68192;SDS011;55012;47.562;18.414;2022-09-27T06:13:52;39.33;;;21.77;;
68192;SDS011;55012;47.562;18.414;2022-09-27T06:16:18;40.55;;;21.25;;
68192;SDS011;55012;47.562;18.414;2022-09-27T06:18:43;35.35;;;20.25;;
68192;SDS011;55012;47.562;18.414;2022-09-27T06:21:09;39.58;;;21.02;;
68192;SDS011;55012;47.562;18.414;2022-09-27T06:23:34;34.92;;;20.08;;
68192;SDS011;55012;47.562;18.414;2022-09-27T06:26:03;35.92;;;21.00;;
68192;SDS011;55012;47.562;18.414;2022-09-27T06:28:30;34.47;;;19.95;;
68192;SDS011;55012;47.562;18.414;2022-09-27T06:30:56;40.67;;;20.67;;
68192;SDS011;55012;47.562;18.414;2022-09-27T06:33:25;52.65;;;21.98;;
68192;SDS011;55012;47.562;18.414;2022-09-27T06:35:52;50.35;;;22.58;;
68192;SDS011;55012;47.562;18.414;2022-09-27T06:38:18;45.20;;;21.15;;
68192;SDS011;55012;47.562;18.414;2022-09-27T06:40:45;41.42;;;19.70;;
68192;SDS011;55012;47.562;18.414;2022-09-27T06:43:15;30.90;;;17.23;;
68192;SDS011;55012;47.562;18.414;2022-09-27T06:45:42;29.50;;;17.42;;
68192;SDS011;55012;47.562;18.414;2022-09-27T06:48:09;29.83;;;17.88;;
68192;SDS011;55012;47.562;18.414;2022-09-27T06:50:37;35.65;;;19.45;;
68192;SDS011;55012;47.562;18.414;2022-09-27T06:53:04;45.05;;;20.92;;
68192;SDS011;55012;47.562;18.414;2022-09-27T06:55:32;50.08;;;24.33;;
68192;SDS011;55012;47.562;18.414;2022-09-27T06:57:58;50.22;;;22.77;;
68192;SDS011;55012;47.562;18.414;2022-09-27T07:00:43;67.00;;;27.15;;
68192;SDS011;55012;47.562;18.414;2022-09-27T07:03:12;46.78;;;21.83;;
68192;SDS011;55012;47.562;18.414;2022-09-27T07:05:39;42.85;;;21.20;;
68192;SDS011;55012;47.562;18.414;2022-09-27T07:08:08;36.28;;;18.33;;
68192;SDS011;55012;47.562;18.414;2022-09-27T07:10:36;33.10;;;17.85;;
68192;SDS011;55012;47.562;18.414;2022-09-27T07:13:06;33.83;;;17.67;;
68192;SDS011;55012;47.562;18.414;2022-09-27T07:15:33;35.13;;;17.90;;
68192;SDS011;55012;47.562;18.414;2022-09-27T07:18:04;43.45;;;21.77;;
68192;SDS011;55012;47.562;18.414;2022-09-27T07:20:30;45.45;;;24.52;;
68192;SDS011;55012;47.562;18.414;2022-09-27T07:22:57;42.25;;;24.17;;
68192;SDS011;55012;47.562;18.414;2022-09-27T07:25:23;43.08;;;24.23;;
68192;SDS011;55012;47.562;18.414;2022-09-27T07:27:49;44.80;;;25.25;;
68192;SDS011;55012;47.562;18.414;2022-09-27T07:30:16;46.15;;;25.70;;
68192;SDS011;55012;47.562;18.414;2022-09-27T07:32:43;50.50;;;28.08;;
68192;SDS011;55012;47.562;18.414;2022-09-27T07:35:09;43.97;;;24.40;;
68192;SDS011;55012;47.562;18.414;2022-09-27T07:37:36;38.30;;;20.33;;
68192;SDS011;55012;47.562;18.414;2022-09-27T07:40:03;45.75;;;23.20;;
68192;SDS011;55012;47.562;18.414;2022-09-27T07:42:31;46.53;;;23.05;;
68192;SDS011;55012;47.562;18.414;2022-09-27T07:44:57;42.28;;;23.38;;
68192;SDS011;55012;47.562;18.414;2022-09-27T07:47:23;46.03;;;24.77;;
68192;SDS011;55012;47.562;18.414;2022-09-27T07:49:52;41.58;;;22.42;;
68192;SDS011;55012;47.562;18.414;2022-09-27T07:52:18;34.03;;;19.20;;
68192;SDS011;55012;47.562;18.414;2022-09-27T07:54:44;34.17;;;19.90;;
68192;SDS011;55012;47.562;18.414;2022-09-27T07:57:11;38.92;;;21.92;;
68192;SDS011;55012;47.562;18.414;2022-09-27T07:59:37;46.35;;;24.45;;
68192;SDS011;55012;47.562;18.414;2022-09-27T08:02:03;36.30;;;21.08;;
68192;SDS011;55012;47.562;18.414;2022-09-27T08:04:28;36.97;;;20.58;;
68192;SDS011;55012;47.562;18.414;2022-09-27T08:06:54;33.60;;;18.30;;
68192;SDS011;55012;47.562;18.414;2022-09-27T08:09:19;35.00;;;16.95;;
68192;SDS011;55012;47.562;18.414;2022-09-27T08:11:45;33.67;;;18.42;;
68192;SDS011;55012;47.562;18.414;2022-09-27T08:14:10;32.42;;;17.15;;
68192;SDS011;55012;47.562;18.414;2022-09-27T08:16:36;33.03;;;18.75;;
68192;SDS011;55012;47.562;18.414;2022-09-27T08:19:02;34.20;;;17.58;;
68192;SDS011;55012;47.562;18.414;2022-09-27T08:21:27;25.40;;;15.05;;
68192;SDS011;55012;47.562;18.414;2022-09-27T08:23:55;24.73;;;14.65;;
68192;SDS011;55012;47.562;18.414;2022-09-27T08:26:21;26.17;;;16.05;;
68192;SDS011;55012;47.562;18.414;2022-09-27T08:28:47;24.58;;;15.43;;
68192;SDS011;55012;47.562;18.414;2022-09-27T08:31:13;27.42;;;16.85;;
68192;SDS011;55012;47.562;18.414;2022-09-27T08:33:38;26.20;;;15.50;;
68192;SDS011;55012;47.562;18.414;2022-09-27T08:36:04;27.08;;;16.98;;
68192;SDS011;55012;47.562;18.414;2022-09-27T08:38:35;27.63;;;16.40;;
68192;SDS011;55012;47.562;18.414;2022-09-27T08:41:03;26.80;;;16.67;;
68192;SDS011;55012;47.562;18.414;2022-09-27T08:49:15;26.77;;;15.90;;
68192;SDS011;55012;47.562;18.414;2022-09-27T08:51:43;27.60;;;15.90;;
68192;SDS011;55012;47.562;18.414;2022-09-27T08:54:21;26.38;;;15.82;;
68192;SDS011;55012;47.562;18.414;2022-09-27T08:56:51;26.88;;;15.98;;
68192;SDS011;55012;47.562;18.414;2022-09-27T08:59:18;25.27;;;16.08;;
68192;SDS011;55012;47.562;18.414;2022-09-27T09:01:48;28.60;;;16.13;;
68192;SDS011;55012;47.562;18.414;2022-09-27T09:04:21;25.40;;;15.10;;
68192;SDS011;55012;47.562;18.414;2022-09-27T09:07:00;23.90;;;15.23;;
68192;SDS011;55012;47.562;18.414;2022-09-27T09:13:22;34.65;;;17.30;;
68192;SDS011;55012;47.562;18.414;2022-09-27T09:16:02;38.15;;;17.80;;
68192;SDS011;55012;47.562;18.414;2022-09-27T09:18:46;34.58;;;17.73;;
68192;SDS011;55012;47.562;18.414;2022-09-27T09:24:22;35.15;;;17.75;;
68192;SDS011;55012;47.562;18.414;2022-09-27T09:29:37;34.95;;;17.80;;
68192;SDS011;55012;47.562;18.414;2022-09-27T09:34:47;29.85;;;17.95;;
68192;SDS011;55012;47.562;18.414;2022-09-27T09:42:25;29.00;;;16.25;;
68192;SDS011;55012;47.562;18.414;2022-09-27T09:47:34;35.00;;;18.63;;
68192;SDS011;55012;47.562;18.414;2022-09-27T09:50:05;29.38;;;16.30;;
68192;SDS011;55012;47.562;18.414;2022-09-27T09:52:45;25.77;;;15.95;;
68192;SDS011;55012;47.562;18.414;2022-09-27T09:55:19;25.90;;;16.52;;
68192;SDS011;55012;47.562;18.414;2022-09-27T09:57:55;27.15;;;16.10;;
68192;SDS011;55012;47.562;18.414;2022-09-27T10:00:24;25.10;;;14.85;;
68192;SDS011;55012;47.562;18.414;2022-09-27T10:02:50;26.83;;;15.38;;
68192;SDS011;55012;47.562;18.414;2022-09-27T10:05:19;25.48;;;14.73;;
68192;SDS011;55012;47.562;18.414;2022-09-27T10:07:47;27.77;;;15.48;;
68192;SDS011;55012;47.562;18.414;2022-09-27T10:10:15;23.60;;;14.75;;
68192;SDS011;55012;47.562;18.414;2022-09-27T10:12:43;26.80;;;15.52;;
68192;SDS011;55012;47.562;18.414;2022-09-27T10:15:15;27.02;;;14.90;;
68192;SDS011;55012;47.562;18.414;2022-09-27T10:17:44;26.92;;;14.77;;
68192;SDS011;55012;47.562;18.414;2022-09-27T10:20:24;26.00;;;14.40;;
68192;SDS011;55012;47.562;18.414;2022-09-27T10:22:58;22.40;;;13.77;;
68192;SDS011;55012;47.562;18.414;2022-09-27T10:28:41;20.45;;;12.75;;
68192;SDS011;55012;47.562;18.414;2022-09-27T10:31:11;22.63;;;13.02;;
68192;SDS011;55012;47.562;18.414;2022-09-27T10:33:50;22.27;;;13.27;;
68192;SDS011;55012;47.562;18.414;2022-09-27T10:36:26;23.33;;;13.95;;
68192;SDS011;55012;47.562;18.414;2022-09-27T10:38:56;22.45;;;13.48;;
68192;SDS011;55012;47.562;18.414;2022-09-27T10:41:35;23.48;;;13.63;;
68192;SDS011;55012;47.562;18.414;2022-09-27T10:46:39;23.38;;;13.75;;
68192;SDS011;55012;47.562;18.414;2022-09-27T10:49:07;23.08;;;13.43;;
68192;SDS011;55012;47.562;18.414;2022-09-27T10:51:42;20.95;;;12.70;;
68192;SDS011;55012;47.562;18.414;2022-09-27T10:54:18;21.08;;;12.88;;
68192;SDS011;55012;47.562;18.414;2022-09-27T10:56:52;21.15;;;12.43;;
68192;SDS011;55012;47.562;18.414;2022-09-27T10:59:28;24.15;;;13.40;;
68192;SDS011;55012;47.562;18.414;2022-09-27T11:01:57;20.92;;;12.48;;
68192;SDS011;55012;47.562;18.414;2022-09-27T11:09:44;21.38;;;12.52;;
68192;SDS011;55012;47.562;18.414;2022-09-27T11:12:23;22.85;;;12.50;;
68192;SDS011;55012;47.562;18.414;2022-09-27T11:14:52;24.08;;;13.63;;
68192;SDS011;55012;47.562;18.414;2022-09-27T11:28:22;20.87;;;12.47;;
68192;SDS011;55012;47.562;18.414;2022-09-27T11:31:07;21.55;;;12.20;;
68192;SDS011;55012;47.562;18.414;2022-09-27T11:41:52;18.08;;;10.48;;
68192;SDS011;55012;47.562;18.414;2022-09-27T11:47:20;14.43;;;9.32;;
68192;SDS011;55012;47.562;18.414;2022-09-27T11:50:25;14.90;;;9.55;;
68192;SDS011;55012;47.562;18.414;2022-09-27T11:59:04;16.92;;;9.25;;
68192;SDS011;55012;47.562;18.414;2022-09-27T12:01:36;15.25;;;9.70;;
68192;SDS011;55012;47.562;18.414;2022-09-27T12:10:16;25.25;;;14.30;;
68192;SDS011;55012;47.562;18.414;2022-09-27T12:12:43;25.65;;;14.85;;
68192;SDS011;55012;47.562;18.414;2022-09-27T12:17:44;24.38;;;12.68;;
68192;SDS011;55012;47.562;18.414;2022-09-27T12:20:18;23.27;;;11.95;;
68192;SDS011;55012;47.562;18.414;2022-09-27T12:25:16;11.88;;;7.30;;
68192;SDS011;55012;47.562;18.414;2022-09-27T12:27:43;9.82;;;6.88;;
68192;SDS011;55012;47.562;18.414;2022-09-27T12:30:23;9.88;;;6.32;;
68192;SDS011;55012;47.562;18.414;2022-09-27T12:32:52;11.32;;;6.90;;
68192;SDS011;55012;47.562;18.414;2022-09-27T12:35:27;12.57;;;7.28;;
68192;SDS011;55012;47.562;18.414;2022-09-27T12:37:59;9.77;;;6.65;;
68192;SDS011;55012;47.562;18.414;2022-09-27T12:40:40;6.65;;;1.15;;
68192;SDS011;55012;47.562;18.414;2022-09-27T12:51:10;76.15;;;4.53;;
68192;SDS011;55012;47.562;18.414;2022-09-27T13:14:45;12.20;;;5.32;;
68192;SDS011;55012;47.562;18.414;2022-09-27T13:17:32;12.80;;;5.55;;
68192;SDS011;55012;47.562;18.414;2022-09-27T13:19:58;13.20;;;5.82;;
68192;SDS011;55012;47.562;18.414;2022-09-27T13:24:52;9.70;;;3.95;;
68192;SDS011;55012;47.562;18.414;2022-09-27T13:29:47;7.40;;;3.78;;
68192;SDS011;55012;47.562;18.414;2022-09-27T13:32:14;7.13;;;3.88;;
68192;SDS011;55012;47.562;18.414;2022-09-27T13:34:54;8.25;;;4.32;;
68192;SDS011;55012;47.562;18.414;2022-09-27T13:37:44;9.52;;;4.53;;
68192;SDS011;55012;47.562;18.414;2022-09-27T13:40:30;10.90;;;4.47;;
68192;SDS011;55012;47.562;18.414;2022-09-27T13:43:11;12.13;;;4.32;;
68192;SDS011;55012;47.562;18.414;2022-09-27T13:53:33;10.15;;;4.80;;
68192;SDS011;55012;47.562;18.414;2022-09-27T13:56:00;9.95;;;4.75;;
68192;SDS011;55012;47.562;18.414;2022-09-27T13:58:44;9.65;;;4.93;;
68192;SDS011;55012;47.562;18.414;2022-09-27T14:01:27;9.10;;;4.50;;
68192;SDS011;55012;47.562;18.414;2022-09-27T14:06:40;6.53;;;3.80;;
68192;SDS011;55012;47.562;18.414;2022-09-27T14:09:13;9.32;;;4.97;;
68192;SDS011;55012;47.562;18.414;2022-09-27T14:11:49;10.88;;;5.55;;
68192;SDS011;55012;47.562;18.414;2022-09-27T14:14:23;16.33;;;7.63;;
68192;SDS011;55012;47.562;18.414;2022-09-27T14:16:51;4.70;;;2.78;;
68192;SDS011;55012;47.562;18.414;2022-09-27T14:19:19;9.27;;;4.78;;
68192;SDS011;55012;47.562;18.414;2022-09-27T14:21:47;5.10;;;3.13;;
68192;SDS011;55012;47.562;18.414;2022-09-27T14:27:02;5.90;;;3.45;;
68192;SDS011;55012;47.562;18.414;2022-09-27T14:29:41;3.35;;;1.60;;
68192;SDS011;55012;47.562;18.414;2022-09-27T14:32:12;3.08;;;1.42;;
68192;SDS011;55012;47.562;18.414;2022-09-27T14:34:42;2.53;;;1.70;;
68192;SDS011;55012;47.562;18.414;2022-09-27T14:37:18;3.13;;;1.90;;
68192;SDS011;55012;47.562;18.414;2022-09-27T14:40:05;3.40;;;1.85;;
68192;SDS011;55012;47.562;18.414;2022-09-27T14:42:43;3.60;;;2.15;;
68192;SDS011;55012;47.562;18.414;2022-09-27T14:47:44;4.47;;;2.72;;
68192;SDS011;55012;47.562;18.414;2022-09-27T14:50:19;5.05;;;2.50;;
68192;SDS011;55012;47.562;18.414;2022-09-27T14:52:49;2.75;;;1.80;;
68192;SDS011;55012;47.562;18.414;2022-09-27T14:55:20;3.40;;;2.00;;
68192;SDS011;55012;47.562;18.414;2022-09-27T14:57:57;5.45;;;2.45;;
68192;SDS011;55012;47.562;18.414;2022-09-27T15:00:30;2.90;;;1.55;;
68192;SDS011;55012;47.562;18.414;2022-09-27T15:03:00;4.63;;;2.25;;
68192;SDS011;55012;47.562;18.414;2022-09-27T15:05:30;4.40;;;2.20;;
68192;SDS011;55012;47.562;18.414;2022-09-27T15:07:58;3.70;;;2.40;;
68192;SDS011;55012;47.562;18.414;2022-09-27T15:10:27;5.68;;;2.90;;
68192;SDS011;55012;47.562;18.414;2022-09-27T15:12:57;7.50;;;3.90;;
68192;SDS011;55012;47.562;18.414;2022-09-27T15:15:33;5.55;;;3.03;;
68192;SDS011;55012;47.562;18.414;2022-09-27T15:18:02;6.38;;;3.60;;
68192;SDS011;55012;47.562;18.414;2022-09-27T15:20:51;4.75;;;2.90;;
68192;SDS011;55012;47.562;18.414;2022-09-27T15:23:24;5.80;;;3.80;;
68192;SDS011;55012;47.562;18.414;2022-09-27T15:26:00;6.72;;;3.78;;
68192;SDS011;55012;47.562;18.414;2022-09-27T15:28:31;6.10;;;3.67;;
68192;SDS011;55012;47.562;18.414;2022-09-27T15:31:02;8.80;;;5.30;;
68192;SDS011;55012;47.562;18.414;2022-09-27T15:33:29;13.73;;;8.25;;
68192;SDS011;55012;47.562;18.414;2022-09-27T15:35:57;14.80;;;7.78;;
68192;SDS011;55012;47.562;18.414;2022-09-27T15:38:30;14.73;;;8.50;;
68192;SDS011;55012;47.562;18.414;2022-09-27T15:41:13;19.02;;;9.55;;
68192;SDS011;55012;47.562;18.414;2022-09-27T15:43:42;12.75;;;7.85;;
68192;SDS011;55012;47.562;18.414;2022-09-27T15:51:49;10.70;;;5.70;;
68192;SDS011;55012;47.562;18.414;2022-09-27T15:54:22;10.05;;;5.80;;
68192;SDS011;55012;47.562;18.414;2022-09-27T15:56:50;13.73;;;7.50;;
68192;SDS011;55012;47.562;18.414;2022-09-27T15:59:19;14.73;;;8.75;;
68192;SDS011;55012;47.562;18.414;2022-09-27T16:01:47;16.08;;;9.50;;
68192;SDS011;55012;47.562;18.414;2022-09-27T16:04:16;19.42;;;11.48;;
68192;SDS011;55012;47.562;18.414;2022-09-27T16:06:42;16.30;;;9.25;;
68192;SDS011;55012;47.562;18.414;2022-09-27T16:09:11;25.17;;;13.05;;
68192;SDS011;55012;47.562;18.414;2022-09-27T16:11:42;18.17;;;10.43;;
68192;SDS011;55012;47.562;18.414;2022-09-27T16:14:09;16.75;;;9.70;;
68192;SDS011;55012;47.562;18.414;2022-09-27T16:16:34;21.70;;;11.82;;
68192;SDS011;55012;47.562;18.414;2022-09-27T16:19:00;23.73;;;11.25;;
68192;SDS011;55012;47.562;18.414;2022-09-27T16:21:25;17.90;;;9.82;;
68192;SDS011;55012;47.562;18.414;2022-09-27T16:23:51;21.23;;;11.10;;
68192;SDS011;55012;47.562;18.414;2022-09-27T16:26:16;23.48;;;11.73;;
68192;SDS011;55012;47.562;18.414;2022-09-27T16:28:43;16.98;;;9.82;;
68192;SDS011;55012;47.562;18.414;2022-09-27T16:31:09;16.00;;;9.65;;
68192;SDS011;55012;47.562;18.414;2022-09-27T16:33:35;15.68;;;9.55;;
68192;SDS011;55012;47.562;18.414;2022-09-27T16:36:03;18.52;;;10.27;;
68192;SDS011;55012;47.562;18.414;2022-09-27T16:38:33;21.45;;;12.00;;
68192;SDS011;55012;47.562;18.414;2022-09-27T16:40:59;21.65;;;11.88;;
68192;SDS011;55012;47.562;18.414;2022-09-27T16:43:26;22.00;;;12.18;;
68192;SDS011;55012;47.562;18.414;2022-09-27T16:45:52;13.45;;;7.43;;
68192;SDS011;55012;47.562;18.414;2022-09-27T16:48:18;13.13;;;7.28;;
68192;SDS011;55012;47.562;18.414;2022-09-27T16:50:44;16.13;;;8.60;;
68192;SDS011;55012;47.562;18.414;2022-09-27T16:53:28;14.63;;;9.20;;
68192;SDS011;55012;47.562;18.414;2022-09-27T16:55:57;21.27;;;11.65;;
68192;SDS011;55012;47.562;18.414;2022-09-27T16:58:23;21.92;;;12.07;;
68192;SDS011;55012;47.562;18.414;2022-09-27T17:00:49;28.98;;;15.18;;
68192;SDS011;55012;47.562;18.414;2022-09-27T17:03:14;25.70;;;13.50;;
68192;SDS011;55012;47.562;18.414;2022-09-27T17:05:40;21.75;;;11.70;;
68192;SDS011;55012;47.562;18.414;2022-09-27T17:08:05;16.02;;;9.43;;
68192;SDS011;55012;47.562;18.414;2022-09-27T17:10:30;24.02;;;13.40;;
68192;SDS011;55012;47.562;18.414;2022-09-27T17:12:56;18.02;;;9.95;;
68192;SDS011;55012;47.562;18.414;2022-09-27T17:15:22;10.95;;;7.20;;
68192;SDS011;55012;47.562;18.414;2022-09-27T17:17:47;10.13;;;5.30;;
68192;SDS011;55012;47.562;18.414;2022-09-27T17:20:14;7.30;;;4.75;;
68192;SDS011;55012;47.562;18.414;2022-09-27T17:22:39;7.53;;;4.55;;
68192;SDS011;55012;47.562;18.414;2022-09-27T17:25:05;10.27;;;4.50;;
68192;SDS011;55012;47.562;18.414;2022-09-27T17:27:30;9.52;;;5.03;;